Nyk Olympus — 3EOS7 — position and weather

sailwx.info

Track history (hours):
 
Tides and Currents Weather Stations Pressure Air Temp Water Temp Dewpoint Dewpoint Depression Visibility Wind Speed Wind Dir Waves Ship Positions

Nyk Olympus

Last reported at 2017-Oct-19 06:27 UTC. Time now 2017-Oct-20 14:42 UTC.
Position N 37°44' E 009°17'.

Length 335 m; draft 13.3 m.

Type: Other ship. MMSI: 372478000.

Date/timePositionNaut miles runAvg speedWind from/ knotsBaromVisibWave heightAir tempDewpointWater temp
2017-Oct-19 06:27N 37°44' E 009°17'21618.1
2017-Oct-18 18:32N 36°40' E 013°36'118.5
2017-Oct-18 18:28N 36°40' E 013°38'1218.4
2017-Oct-18 17:48N 36°36' E 013°52'518.2
2017-Oct-18 17:30N 36°34' E 013°59'917.9
2017-Oct-18 16:59N 36°32' E 014°10'817.5
2017-Oct-18 16:30N 36°29' E 014°20'917.4
2017-Oct-18 16:00N 36°27' E 014°30'917.4
2017-Oct-18 15:30N 36°24' E 014°41'917.7
2017-Oct-18 15:00N 36°21' E 014°51'1817.8
2017-Oct-18 13:59N 36°16' E 015°12'1018.0
2017-Oct-18 13:26N 36°13' E 015°24'20918.5
2017-Oct-18 02:09N 35°10' E 019°29'918.9
2017-Oct-18 01:39N 35°07' E 019°40'418.7
2017-Oct-18 01:28N 35°06' E 019°44'818.5
2017-Oct-18 01:00N 35°03' E 019°54'1118.4
2017-Oct-18 00:25N 34°60' E 020°07'  
Track history (hours):
 
Tides and Currents Weather Stations Pressure Air Temp Water Temp Dewpoint Dewpoint Depression Visibility Wind Speed Wind Dir Waves Ship Positions

Nyk Olympus

Last reported at 2017-Oct-19 06:27 UTC. Time now 2017-Oct-20 14:42 UTC.
Position N 37°44' E 009°17'.

Length 335 m; draft 13.3 m.

Type: Other ship. MMSI: 372478000.

Date/timePositionNaut miles runAvg speedWind from/ knotsBaromVisibWave heightAir tempDewpointWater temp
2017-Oct-19 06:27N 37°44' E 009°17'21618.1
2017-Oct-18 18:32N 36°40' E 013°36'118.5
2017-Oct-18 18:28N 36°40' E 013°38'1218.4
2017-Oct-18 17:48N 36°36' E 013°52'518.2
2017-Oct-18 17:30N 36°34' E 013°59'917.9
2017-Oct-18 16:59N 36°32' E 014°10'817.5
2017-Oct-18 16:30N 36°29' E 014°20'917.4
2017-Oct-18 16:00N 36°27' E 014°30'917.4
2017-Oct-18 15:30N 36°24' E 014°41'917.7
2017-Oct-18 15:00N 36°21' E 014°51'1817.8
2017-Oct-18 13:59N 36°16' E 015°12'1018.0
2017-Oct-18 13:26N 36°13' E 015°24'20918.5
2017-Oct-18 02:09N 35°10' E 019°29'918.9
2017-Oct-18 01:39N 35°07' E 019°40'418.7
2017-Oct-18 01:28N 35°06' E 019°44'818.5
2017-Oct-18 01:00N 35°03' E 019°54'1118.4
2017-Oct-18 00:25N 34°60' E 020°07'  

Dump ship's entire track history